Time;durP1;ratioP1;P1;durP2;ratioP2;P2;SDS_P1;SDS_P2;PMS_P1;PMS_P2;Temp;Humidity;BMP_temperature;BMP_pressure;BME280_temperature;BME280_humidity;BME280_pressure;Samples;Min_cycle;Max_cycle;Signal;HPM_P1;HPM_P2
2023/10/24 00:00:56;;;;;;;19.90;17.50;;;;;;;10.41;100.00;100045.09;5009292;28;20029;-66
2023/10/24 00:03:21;;;;;;;20.88;18.75;;;;;;;10.43;100.00;100043.41;5007381;28;20386;-65
2023/10/24 00:05:48;;;;;;;20.92;16.40;;;;;;;10.42;100.00;100042.53;5007529;28;20140;-65
2023/10/24 00:08:13;;;;;;;17.73;15.93;;;;;;;10.44;100.00;100038.25;5021960;28;20033;-65
2023/10/24 00:10:39;;;;;;;18.80;16.73;;;;;;;10.44;100.00;100043.44;5019394;28;20032;-65
2023/10/24 00:13:04;;;;;;;24.08;16.80;;;;;;;10.46;100.00;100038.28;4999838;28;20025;-65
2023/10/24 00:15:29;;;;;;;20.80;16.13;;;;;;;10.47;100.00;100052.13;5007054;28;20473;-65
2023/10/24 00:17:55;;;;;;;19.08;15.85;;;;;;;10.47;100.00;100044.34;5007888;28;20087;-65
2023/10/24 00:20:20;;;;;;;20.05;15.75;;;;;;;10.47;100.00;100040.03;5007928;28;20436;-64
2023/10/24 00:22:45;;;;;;;15.48;13.90;;;;;;;10.47;100.00;100045.22;5007163;28;20783;-66
2023/10/24 00:25:10;;;;;;;16.40;14.07;;;;;;;10.49;100.00;100040.97;5006532;28;20463;-65
2023/10/24 00:27:36;;;;;;;18.33;13.93;;;;;;;10.48;100.00;100044.41;5006029;28;20033;-65
2023/10/24 00:30:01;;;;;;;16.75;12.73;;;;;;;10.47;100.00;100034.84;5008155;28;20026;-65
2023/10/24 00:32:26;;;;;;;19.67;13.60;;;;;;;10.46;100.00;100033.13;5007901;28;20469;-65
2023/10/24 00:34:52;;;;;;;21.55;12.75;;;;;;;10.47;100.00;100040.03;5006667;28;20068;-65
2023/10/24 00:37:17;;;;;;;15.40;12.40;;;;;;;10.45;100.00;100031.38;5020183;28;20029;-64
2023/10/24 00:39:42;;;;;;;15.50;12.80;;;;;;;10.47;100.00;100032.25;4994733;28;20109;-66
2023/10/24 00:42:08;;;;;;;15.13;12.40;;;;;;;10.43;100.00;100033.91;5006526;28;20053;-65
2023/10/24 00:44:33;;;;;;;13.70;11.90;;;;;;;10.44;100.00;100034.78;5000964;28;20406;-65
2023/10/24 00:47:00;;;;;;;14.05;11.32;;;;;;;10.47;100.00;100037.44;5012466;28;20377;-66
2023/10/24 00:49:26;;;;;;;19.85;12.32;;;;;;;10.45;100.00;100044.34;5013358;28;20101;-65
2023/10/24 00:51:54;;;;;;;13.45;10.60;;;;;;;10.44;100.00;100045.16;5012641;28;20426;-65
2023/10/24 00:54:20;;;;;;;14.40;11.25;;;;;;;10.46;100.00;100048.66;4989092;28;20018;-65
2023/10/24 00:56:48;;;;;;;15.23;11.07;;;;;;;10.47;100.00;100055.56;4989898;28;20533;-65
2023/10/24 00:59:14;;;;;;;10.80;9.27;;;;;;;10.41;100.00;100045.09;5002806;28;20064;-65
2023/10/24 01:01:40;;;;;;;12.00;8.52;;;;;;;10.39;100.00;100050.25;5022191;28;20405;-63
2023/10/24 01:04:06;;;;;;;9.98;8.27;;;;;;;10.38;100.00;100051.06;5014812;28;20033;-64
2023/10/24 01:06:31;;;;;;;11.57;8.13;;;;;;;10.38;100.00;100047.63;5000884;28;20099;-64
2023/10/24 01:08:56;;;;;;;8.80;7.90;;;;;;;10.34;100.00;100044.13;5026154;28;20030;-65
2023/10/24 01:11:23;;;;;;;8.07;7.30;;;;;;;10.32;100.00;100046.69;5015506;28;20022;-66
2023/10/24 01:13:49;;;;;;;10.60;7.20;;;;;;;10.32;100.00;100041.50;5008246;28;20017;-65
2023/10/24 01:16:16;;;;;;;8.07;7.25;;;;;;;10.31;100.00;100041.44;5014610;28;20029;-64
2023/10/24 01:18:41;;;;;;;9.15;7.20;;;;;;;10.32;100.00;100041.50;5007689;28;20069;-65
2023/10/24 01:21:06;;;;;;;9.93;6.10;;;;;;;10.31;100.00;100033.66;5002541;28;20058;-65
2023/10/24 01:23:32;;;;;;;8.63;6.70;;;;;;;10.30;100.00;100037.13;5000368;28;20118;-65
2023/10/24 01:25:58;;;;;;;11.15;6.03;;;;;;;10.31;100.00;100044.91;5007393;28;20021;-65
2023/10/24 01:28:25;;;;;;;10.65;5.97;;;;;;;10.28;100.00;100044.84;5007272;28;20030;-65
2023/10/24 01:30:50;;;;;;;7.47;6.38;;;;;;;10.28;100.00;100033.63;5006569;28;20037;-65
2023/10/24 01:33:16;;;;;;;10.10;7.07;;;;;;;10.29;100.00;100044.00;5006806;28;20382;-65
2023/10/24 01:35:41;;;;;;;9.05;6.75;;;;;;;10.29;100.00;100038.81;4996127;28;20014;-65
2023/10/24 01:38:06;;;;;;;6.72;6.05;;;;;;;10.27;100.00;100055.19;5010606;28;20040;-65
2023/10/24 01:40:31;;;;;;;8.05;6.38;;;;;;;10.27;100.00;100050.84;5002727;28;20326;-66
2023/10/24 01:42:57;;;;;;;8.65;6.18;;;;;;;10.28;100.00;100047.44;4996293;28;20046;-65
2023/10/24 01:45:22;;;;;;;6.68;6.00;;;;;;;10.29;100.00;100056.94;5001217;28;20030;-65
2023/10/24 01:47:48;;;;;;;6.95;5.60;;;;;;;10.28;100.00;100050.03;5010795;28;20448;-65
2023/10/24 01:50:13;;;;;;;8.05;6.18;;;;;;;10.29;100.00;100041.41;5003463;28;20025;-65
2023/10/24 01:52:38;;;;;;;6.28;5.47;;;;;;;10.29;100.00;100035.38;5010273;28;20038;-65
2023/10/24 01:55:04;;;;;;;5.90;5.35;;;;;;;10.27;100.00;100042.25;5001839;28;20022;-65
2023/10/24 01:57:29;;;;;;;5.80;5.25;;;;;;;10.25;100.00;100030.97;5002938;28;20033;-65
2023/10/24 01:59:54;;;;;;;7.47;5.35;;;;;;;10.23;100.00;100036.13;5003030;28;20032;-66
2023/10/24 02:02:19;;;;;;;6.55;5.43;;;;;;;10.21;100.00;100048.16;5009626;28;20078;-65
2023/10/24 02:04:45;;;;;;;6.57;5.40;;;;;;;10.18;100.00;100037.75;5010858;28;20034;-65
2023/10/24 02:07:10;;;;;;;7.25;5.25;;;;;;;10.16;100.00;100039.44;5009262;28;20410;-63
2023/10/24 02:09:35;;;;;;;7.15;5.28;;;;;;;10.13;100.00;100027.28;4997158;28;20033;-64
2023/10/24 02:12:01;;;;;;;7.28;5.55;;;;;;;10.14;100.00;100023.88;5007743;28;20425;-64
2023/10/24 02:14:28;;;;;;;5.68;5.15;;;;;;;10.13;100.00;100039.38;5009446;28;20014;-65
2023/10/24 02:16:53;;;;;;;6.03;4.75;;;;;;;10.12;100.00;100043.66;4999234;28;20113;-65
2023/10/24 02:19:18;;;;;;;6.72;5.15;;;;;;;10.12;100.00;100037.59;5003419;28;20550;-65
2023/10/24 02:21:43;;;;;;;5.13;4.72;;;;;;;10.10;100.00;100042.75;5013704;28;20029;-64
2023/10/24 02:24:09;;;;;;;5.90;4.65;;;;;;;10.12;100.00;100035.00;5009549;28;20731;-65
2023/10/24 02:26:34;;;;;;;5.40;4.97;;;;;;;10.13;100.00;100034.19;5009748;28;20077;-65
2023/10/24 02:28:59;;;;;;;4.82;4.40;;;;;;;10.13;100.00;100036.78;5008426;28;20393;-65
2023/10/24 02:31:24;;;;;;;5.53;4.45;;;;;;;10.11;100.00;100043.63;5009738;28;20293;-63
2023/10/24 02:33:50;;;;;;;5.70;4.70;;;;;;;10.07;100.00;100046.13;5008094;28;20469;-64
2023/10/24 02:36:15;;;;;;;7.40;4.30;;;;;;;10.06;100.00;100044.41;5015862;28;20017;-65
2023/10/24 02:38:41;;;;;;;6.10;4.80;;;;;;;10.08;100.00;100047.91;5029577;28;20048;-65
2023/10/24 02:41:06;;;;;;;3.97;3.65;;;;;;;10.09;100.00;100049.63;5005673;28;20058;-65
2023/10/24 02:43:32;;;;;;;4.15;3.70;;;;;;;10.08;100.00;100050.50;5012294;28;20104;-65
2023/10/24 02:46:01;;;;;;;4.10;3.80;;;;;;;10.03;100.00;100049.53;4992194;28;20077;-65
2023/10/24 02:48:26;;;;;;;4.65;3.70;;;;;;;9.99;100.00;100052.88;5001829;28;20083;-65
2023/10/24 02:50:56;;;;;;;3.60;3.30;;;;;;;9.99;100.00;100058.06;5008795;28;20057;-65
2023/10/24 02:53:21;;;;;;;3.45;3.15;;;;;;;10.02;100.00;100057.25;5009338;28;20029;-65
2023/10/24 02:55:48;;;;;;;5.20;3.65;;;;;;;10.02;100.00;100055.53;5002724;28;20022;-66
2023/10/24 02:58:14;;;;;;;4.63;4.10;;;;;;;10.00;100.00;100059.78;5003561;28;20018;-65
2023/10/24 03:00:39;;;;;;;4.35;3.72;;;;;;;10.00;100.00;100057.19;5001618;28;20506;-63
2023/10/24 03:03:04;;;;;;;4.47;3.97;;;;;;;10.01;100.00;100065.84;5009072;28;20033;-64
2023/10/24 03:05:30;;;;;;;6.20;4.13;;;;;;;9.98;100.00;100066.66;5009518;28;20037;-64
2023/10/24 03:07:55;;;;;;;7.53;4.57;;;;;;;9.99;100.00;100068.41;5010841;28;20036;-64
2023/10/24 03:10:20;;;;;;;4.47;4.07;;;;;;;9.96;100.00;100058.88;5023341;28;20025;-65
2023/10/24 03:12:46;;;;;;;4.88;4.38;;;;;;;9.95;100.00;100070.03;5009086;28;20083;-64
2023/10/24 03:15:11;;;;;;;5.15;4.65;;;;;;;9.96;100.00;100069.22;5008234;28;20024;-65
2023/10/24 03:17:37;;;;;;;6.13;4.28;;;;;;;9.91;100.00;100073.41;5006110;28;20029;-64
2023/10/24 03:20:02;;;;;;;5.15;4.20;;;;;;;9.92;100.00;100066.50;5009049;28;20014;-64
2023/10/24 03:22:28;;;;;;;3.83;3.53;;;;;;;9.94;100.00;100070.00;5004331;28;20489;-65
2023/10/24 03:24:53;;;;;;;5.68;3.75;;;;;;;9.95;100.00;100071.75;4999570;28;20018;-64
2023/10/24 03:27:18;;;;;;;5.47;4.32;;;;;;;9.94;100.00;100064.84;5020561;28;20533;-65
2023/10/24 03:29:44;;;;;;;4.47;4.00;;;;;;;9.93;100.00;100071.72;4998356;28;20487;-65
2023/10/24 03:32:09;;;;;;;4.28;3.78;;;;;;;9.93;100.00;100068.28;5006444;28;20077;-65
2023/10/24 03:34:36;;;;;;;4.65;4.25;;;;;;;9.90;100.00;100074.25;5017726;28;20034;-63
2023/10/24 03:37:02;;;;;;;3.90;3.60;;;;;;;9.90;100.00;100068.19;5000067;28;20029;-65
2023/10/24 03:39:28;;;;;;;4.50;4.10;;;;;;;9.88;100.00;100075.91;5011520;28;20450;-66
2023/10/24 03:41:53;;;;;;;4.80;4.38;;;;;;;9.89;100.00;100066.47;5008199;28;20077;-65
2023/10/24 03:44:19;;;;;;;4.93;4.10;;;;;;;9.87;100.00;100062.94;5008841;28;20655;-65
2023/10/24 03:46:44;;;;;;;5.03;4.03;;;;;;;9.90;100.00;100068.19;5008279;28;20528;-65
2023/10/24 03:49:09;;;;;;;4.90;4.50;;;;;;;9.92;100.00;100071.69;5007901;28;20243;-65
2023/10/24 03:51:35;;;;;;;5.85;4.22;;;;;;;9.90;100.00;100068.19;5008318;28;20479;-64
2023/10/24 03:54:00;;;;;;;4.72;4.07;;;;;;;9.90;100.00;100068.19;5013113;28;20009;-66
2023/10/24 03:56:28;;;;;;;4.60;3.83;;;;;;;9.89;100.00;100071.63;5004329;28;20507;-65
2023/10/24 03:58:53;;;;;;;4.70;4.20;;;;;;;9.88;100.00;100080.22;5013664;28;20041;-65
2023/10/24 04:01:19;;;;;;;5.07;4.15;;;;;;;9.88;100.00;100080.22;5001415;28;20378;-64
2023/10/24 04:03:44;;;;;;;4.55;4.15;;;;;;;9.85;100.00;100074.16;5007750;28;20029;-65
2023/10/24 04:06:12;;;;;;;4.28;3.88;;;;;;;9.85;100.00;100079.34;5008263;28;20030;-64
2023/10/24 04:08:39;;;;;;;4.65;4.25;;;;;;;9.87;100.00;100069.00;4998294;28;20378;-64
2023/10/24 04:11:13;;;;;;;5.15;4.57;;;;;;;9.88;100.00;100070.75;5016306;28;20025;-65
2023/10/24 04:13:38;;;;;;;5.18;4.32;;;;;;;9.87;100.00;100075.91;4994793;28;20026;-65
2023/10/24 04:16:03;;;;;;;4.90;4.30;;;;;;;9.85;100.00;100071.56;5001246;28;20618;-65
2023/10/24 04:18:29;;;;;;;5.63;4.97;;;;;;;9.89;100.00;100077.69;5015365;28;20032;-65
2023/10/24 04:20:54;;;;;;;5.55;4.57;;;;;;;9.88;100.00;100070.75;5023627;28;20028;-65
2023/10/24 04:23:19;;;;;;;5.00;4.50;;;;;;;9.91;100.00;100064.78;5005726;28;20110;-65
2023/10/24 04:25:45;;;;;;;5.90;5.30;;;;;;;9.89;100.00;100056.09;5005145;28;20032;-64
2023/10/24 04:28:11;;;;;;;4.90;4.47;;;;;;;9.88;100.00;100044.88;5007360;28;20560;-66
2023/10/24 04:30:40;;;;;;;5.00;4.57;;;;;;;9.89;100.00;100046.63;5006866;28;20083;-65
2023/10/24 04:33:06;;;;;;;5.13;4.65;;;;;;;9.89;100.00;100040.56;5007770;28;20075;-65
2023/10/24 04:35:32;;;;;;;5.57;5.07;;;;;;;9.91;100.00;100038.91;5006908;28;20504;-65
2023/10/24 04:37:57;;;;;;;5.70;4.45;;;;;;;9.92;100.00;100040.63;5014995;28;20038;-65
2023/10/24 04:40:23;;;;;;;6.55;5.07;;;;;;;9.90;100.00;100035.44;4999768;28;20100;-65
2023/10/24 04:42:50;;;;;;;4.65;4.25;;;;;;;9.89;100.00;100036.28;5001585;28;20065;-66
2023/10/24 04:45:16;;;;;;;8.82;5.15;;;;;;;9.89;100.00;100040.56;4999920;28;20018;-65
2023/10/24 04:47:41;;;;;;;7.53;5.60;;;;;;;9.86;100.00;100041.38;4994686;28;20014;-65
2023/10/24 04:50:06;;;;;;;5.88;5.38;;;;;;;9.83;100.00;100042.19;5007687;28;20049;-65
2023/10/24 04:52:31;;;;;;;5.25;4.68;;;;;;;9.82;100.00;100040.44;5006962;28;20022;-65
2023/10/24 04:54:57;;;;;;;4.80;4.40;;;;;;;9.79;100.00;100040.38;5007436;28;20106;-65
2023/10/24 04:57:22;;;;;;;5.50;5.00;;;;;;;9.78;100.00;100043.81;5007641;28;20030;-65
2023/10/24 04:59:47;;;;;;;4.82;4.43;;;;;;;9.78;100.00;100048.97;5007910;28;20026;-65
2023/10/24 05:02:12;;;;;;;5.35;4.80;;;;;;;9.80;100.00;100046.41;5006271;28;20037;-65
2023/10/24 05:04:38;;;;;;;4.90;4.40;;;;;;;9.78;100.00;100048.97;5006961;28;20034;-65
2023/10/24 05:07:03;;;;;;;8.40;4.65;;;;;;;9.77;100.00;100048.94;5003627;28;20022;-65
2023/10/24 05:09:28;;;;;;;4.43;3.80;;;;;;;9.78;100.00;100048.97;5008294;28;20049;-64
2023/10/24 05:11:54;;;;;;;4.55;4.15;;;;;;;9.77;100.00;100051.53;5016308;28;20022;-65
2023/10/24 05:14:19;;;;;;;4.47;4.07;;;;;;;9.76;100.00;100045.47;5009145;28;20113;-63
2023/10/24 05:16:44;;;;;;;4.82;4.32;;;;;;;9.73;100.00;100056.63;5017176;28;20035;-65
2023/10/24 05:19:10;;;;;;;4.53;4.13;;;;;;;9.71;100.00;100055.69;5010126;28;20386;-63
2023/10/24 05:21:35;;;;;;;4.60;4.18;;;;;;;9.74;100.00;100052.31;5021083;28;20037;-64
2023/10/24 05:24:00;;;;;;;3.65;3.35;;;;;;;9.71;100.00;100055.69;5016552;28;20029;-65
2023/10/24 05:26:26;;;;;;;3.90;3.60;;;;;;;9.72;100.00;100060.06;5013472;28;20068;-64
2023/10/24 05:28:51;;;;;;;3.55;3.25;;;;;;;9.69;100.00;100051.34;5025356;28;20116;-65
2023/10/24 05:31:17;;;;;;;3.92;3.10;;;;;;;9.70;100.00;100048.78;5013537;28;20032;-65
2023/10/24 05:33:42;;;;;;;3.25;2.72;;;;;;;9.69;100.00;100035.81;4998005;28;20025;-65
2023/10/24 05:36:07;;;;;;;2.75;2.50;;;;;;;9.70;100.00;100022.91;5017563;28;20029;-65
2023/10/24 05:38:33;;;;;;;3.13;2.83;;;;;;;9.69;100.00;100022.88;5010754;28;20041;-64
2023/10/24 05:41:00;;;;;;;3.05;2.55;;;;;;;9.69;100.00;100023.78;5007303;28;20033;-65
2023/10/24 05:43:25;;;;;;;3.03;2.72;;;;;;;9.68;100.00;100026.31;5009862;28;20530;-65
2023/10/24 05:45:50;;;;;;;3.05;2.75;;;;;;;9.68;100.00;100022.00;5007765;28;20512;-64
2023/10/24 05:48:16;;;;;;;3.45;3.15;;;;;;;9.67;100.00;100035.78;5007739;28;20026;-64
2023/10/24 05:50:43;;;;;;;3.03;2.83;;;;;;;9.69;100.00;100038.41;5011445;28;20029;-64
2023/10/24 05:53:08;;;;;;;3.10;2.80;;;;;;;9.70;100.00;100040.16;5008720;28;20553;-65
2023/10/24 05:55:34;;;;;;;4.93;3.60;;;;;;;9.66;100.00;100040.94;5007176;28;20025;-65
2023/10/24 05:57:59;;;;;;;3.00;2.80;;;;;;;9.67;100.00;100040.09;5016055;28;20390;-66
2023/10/24 06:00:25;;;;;;;3.97;2.70;;;;;;;9.67;100.00;100047.84;5023051;28;20064;-66
2023/10/24 06:02:50;;;;;;;3.55;2.95;;;;;;;9.67;100.00;100050.44;5008177;28;20393;-67
2023/10/24 06:05:15;;;;;;;4.47;3.45;;;;;;;9.67;100.00;100055.59;5008645;28;20026;-66
2023/10/24 06:07:40;;;;;;;2.83;2.47;;;;;;;9.66;100.00;100059.06;5010096;28;20037;-65
2023/10/24 06:10:06;;;;;;;3.10;2.80;;;;;;;9.64;100.00;100050.38;5010852;28;20088;-66
2023/10/24 06:12:32;;;;;;;3.22;2.92;;;;;;;9.64;100.00;100047.78;5003511;28;20021;-66
2023/10/24 06:14:57;;;;;;;3.08;2.78;;;;;;;9.64;100.00;100040.03;5002358;28;20093;-65
2023/10/24 06:17:23;;;;;;;2.60;2.40;;;;;;;9.66;100.00;100035.75;5010611;28;20025;-67
2023/10/24 06:19:49;;;;;;;2.70;2.47;;;;;;;9.64;100.00;100024.50;5023753;28;20033;-66
2023/10/24 06:22:15;;;;;;;3.03;2.72;;;;;;;9.65;100.00;100023.66;4997459;28;20030;-65
2023/10/24 06:24:40;;;;;;;2.63;2.42;;;;;;;9.61;100.00;100020.13;5014910;28;20279;-65
2023/10/24 06:27:05;;;;;;;2.90;2.60;;;;;;;9.63;100.00;100035.66;5015941;28;20104;-66
2023/10/24 06:29:31;;;;;;;2.45;2.20;;;;;;;9.65;100.00;100036.59;4993939;28;20229;-66
2023/10/24 06:31:57;;;;;;;3.67;2.58;;;;;;;9.64;100.00;100045.19;4997780;28;20108;-66
2023/10/24 06:34:23;;;;;;;3.55;3.00;;;;;;;9.59;100.00;100048.53;4993804;28;20018;-66
2023/10/24 06:36:48;;;;;;;3.03;2.50;;;;;;;9.57;100.00;100045.03;5005077;28;20166;-66
2023/10/24 06:39:13;;;;;;;2.85;2.60;;;;;;;9.60;100.00;100055.47;4996230;28;20057;-65
2023/10/24 06:41:39;;;;;;;3.50;2.75;;;;;;;9.60;100.00;100063.25;5006850;28;20080;-65
2023/10/24 06:44:04;;;;;;;3.20;2.90;;;;;;;9.63;100.00;100074.47;5008712;28;20180;-66
2023/10/24 06:46:29;;;;;;;2.65;2.45;;;;;;;9.65;100.00;100072.81;5009224;28;20363;-67
2023/10/24 06:48:55;;;;;;;3.22;2.92;;;;;;;9.67;100.00;100071.13;5010552;28;20030;-66
2023/10/24 06:51:20;;;;;;;3.95;3.30;;;;;;;9.68;100.00;100062.50;5010278;28;20448;-66
2023/10/24 06:53:46;;;;;;;4.03;3.55;;;;;;;9.69;100.00;100053.94;5009170;28;20037;-66
2023/10/24 06:56:11;;;;;;;4.65;3.70;;;;;;;9.72;100.00;100060.06;5007948;28;20026;-66
2023/10/24 06:58:37;;;;;;;3.88;3.45;;;;;;;9.73;100.00;100066.13;5007990;28;20475;-66
2023/10/24 07:01:02;;;;;;;3.88;3.58;;;;;;;9.73;100.00;100060.94;5009854;28;20121;-65
2023/10/24 07:03:28;;;;;;;4.85;3.40;;;;;;;9.74;100.00;100049.75;5009061;28;20148;-66
2023/10/24 07:05:53;;;;;;;4.75;3.45;;;;;;;9.75;100.00;100041.13;5009400;28;20036;-65
2023/10/24 07:08:21;;;;;;;4.45;3.67;;;;;;;9.77;100.00;100039.44;5008964;28;20029;-66
2023/10/24 07:10:47;;;;;;;6.22;4.60;;;;;;;9.77;100.00;100047.22;5027792;28;20025;-66
2023/10/24 07:13:12;;;;;;;5.53;4.20;;;;;;;9.78;100.00;100051.56;5015690;28;20432;-66
2023/10/24 07:15:39;;;;;;;6.45;4.43;;;;;;;9.79;100.00;100055.88;5015190;28;20025;-65
2023/10/24 07:18:04;;;;;;;4.10;3.70;;;;;;;9.77;100.00;100042.03;5013062;28;20030;-66
2023/10/24 07:20:33;;;;;;;5.88;4.38;;;;;;;9.77;100.00;100049.81;5016379;28;20486;-66
2023/10/24 07:22:59;;;;;;;5.25;4.53;;;;;;;9.80;100.00;100043.84;5008731;28;20367;-67
2023/10/24 07:25:24;;;;;;;6.32;4.78;;;;;;;9.81;100.00;100049.03;4995501;28;20033;-66
2023/10/24 07:27:49;;;;;;;6.13;4.20;;;;;;;9.82;100.00;100050.78;5009059;28;20425;-65
2023/10/24 07:30:14;;;;;;;5.70;4.32;;;;;;;9.83;100.00;100041.31;5021464;28;20101;-66
2023/10/24 07:32:40;;;;;;;6.35;5.00;;;;;;;9.87;100.00;100050.00;5027441;28;20033;-66
2023/10/24 07:35:05;;;;;;;5.47;4.95;;;;;;;9.90;100.00;100052.66;5012118;28;20018;-66
2023/10/24 07:37:35;;;;;;;6.00;4.63;;;;;;;9.92;100.00;100051.00;5013845;28;20029;-66
2023/10/24 07:40:00;;;;;;;6.40;5.07;;;;;;;9.95;100.00;100056.22;5014370;28;20022;-66
2023/10/24 07:42:26;;;;;;;9.48;5.45;;;;;;;9.97;100.00;100059.72;5011364;28;20074;-66
2023/10/24 07:44:53;;;;;;;6.22;5.18;;;;;;;9.98;100.00;100056.31;5010213;28;20029;-66
2023/10/24 07:47:18;;;;;;;5.40;4.90;;;;;;;9.99;100.00;100050.28;5013768;28;20029;-67
2023/10/24 07:49:43;;;;;;;8.20;4.93;;;;;;;10.00;100.00;100049.44;5006613;28;20049;-66
2023/10/24 07:52:09;;;;;;;5.53;4.75;;;;;;;10.03;100.00;100034.00;5016469;28;20021;-65
2023/10/24 07:54:34;;;;;;;6.18;4.90;;;;;;;10.06;100.00;100033.16;5008974;28;20025;-67
2023/10/24 07:57:00;;;;;;;5.50;4.72;;;;;;;10.08;100.00;100042.72;5016583;28;20421;-67
2023/10/24 07:59:25;;;;;;;6.97;5.50;;;;;;;10.11;100.00;100046.22;5016233;28;20072;-66
2023/10/24 08:01:51;;;;;;;6.05;5.00;;;;;;;10.12;100.00;100055.72;4998834;28;20066;-67
2023/10/24 08:04:16;;;;;;;6.25;5.22;;;;;;;10.16;100.00;100049.78;5011391;28;20030;-66
2023/10/24 08:06:41;;;;;;;6.50;5.20;;;;;;;10.19;100.00;100044.66;5008053;28;20026;-67
2023/10/24 08:09:07;;;;;;;7.68;5.88;;;;;;;10.24;100.00;100036.97;4999061;28;20471;-67
2023/10/24 08:11:32;;;;;;;6.43;5.75;;;;;;;10.29;100.00;100037.97;5025414;28;20022;-66
2023/10/24 08:13:57;;;;;;;6.85;5.78;;;;;;;10.37;100.00;100040.69;4995643;28;20032;-67
2023/10/24 08:16:22;;;;;;;8.45;6.82;;;;;;;10.45;100.00;100041.75;5006724;28;20026;-66
2023/10/24 08:18:48;;;;;;;7.82;7.03;;;;;;;10.52;100.00;100041.03;5016733;28;20396;-66
2023/10/24 08:21:13;;;;;;;7.53;6.70;;;;;;;10.56;100.00;100040.25;5013120;28;20030;-66
2023/10/24 08:23:39;;;;;;;8.88;7.43;;;;;;;10.61;100.00;100042.06;5007337;28;20030;-66
2023/10/24 08:26:04;;;;;;;8.45;6.55;;;;;;;10.65;100.00;100043.88;4999941;28;20543;-66
2023/10/24 08:28:30;;;;;;;8.38;6.70;;;;;;;10.72;100.00;100043.13;5005801;28;20034;-66
2023/10/24 08:30:56;;;;;;;8.02;6.03;;;;;;;10.85;100.00;100057.19;5002447;28;20042;-66
2023/10/24 08:33:22;;;;;;;8.65;6.40;;;;;;;10.87;100.00;100062.38;5017599;28;20020;-66
2023/10/24 08:35:47;;;;;;;6.15;5.55;;;;;;;10.89;100.00;100064.19;5013745;28;20022;-66
2023/10/24 08:38:13;;;;;;;6.78;5.40;;;;;;;10.89;100.00;100073.66;5019739;28;20026;-65
2023/10/24 08:40:40;;;;;;;5.55;4.85;;;;;;;10.93;100.00;100080.66;5006711;28;20018;-66
2023/10/24 08:43:05;;;;;;;6.88;5.10;;;;;;;10.92;100.00;100084.09;5006606;28;20052;-67
2023/10/24 08:45:31;;;;;;;6.22;4.75;;;;;;;10.94;100.00;100082.41;5004524;28;20022;-66
2023/10/24 08:47:58;;;;;;;6.47;4.35;;;;;;;11.07;100.00;100072.25;5007244;28;20419;-66
2023/10/24 08:50:24;;;;;;;5.00;4.50;;;;;;;11.10;100.00;100073.19;5006164;28;20474;-66
2023/10/24 08:52:50;;;;;;;6.90;5.47;;;;;;;11.11;100.00;100063.69;5008312;28;20395;-66
2023/10/24 08:55:18;;;;;;;5.53;5.00;;;;;;;11.15;100.00;100075.88;5005085;28;20022;-67
2023/10/24 08:57:45;;;;;;;5.28;4.65;;;;;;;11.16;100.00;100067.22;5007058;28;20064;-66
2023/10/24 09:00:12;;;;;;;6.53;5.47;;;;;;;11.19;100.00;100079.38;5010151;28;20116;-67
2023/10/24 09:02:40;;;;;;;8.60;5.90;;;;;;;11.11;100.00;100093.09;5007648;28;20121;-66
2023/10/24 09:05:09;;;;;;;8.35;5.90;;;;;;;11.10;100.00;100080.09;5017782;28;20474;-66
2023/10/24 09:07:35;;;;;;;7.20;6.18;;;;;;;11.14;100.00;100066.31;5006429;28;20036;-66
2023/10/24 09:10:00;;;;;;;6.78;6.10;;;;;;;11.13;100.00;100057.69;5006846;28;20113;-64
2023/10/24 09:12:29;;;;;;;7.30;6.03;;;;;;;11.16;100.00;100059.44;4993965;28;20495;-66
2023/10/24 09:14:55;;;;;;;6.55;5.80;;;;;;;11.20;100.00;100058.66;5006872;28;20050;-66
2023/10/24 09:17:22;;;;;;;6.70;6.00;;;;;;;11.22;100.00;100043.13;5011737;28;20489;-66
2023/10/24 09:19:48;;;;;;;6.85;6.15;;;;;;;11.22;100.00;100046.59;5006977;28;20053;-66
2023/10/24 09:22:15;;;;;;;7.80;5.93;;;;;;;11.23;100.00;100044.84;5011724;28;20420;-65
2023/10/24 09:24:45;;;;;;;9.45;6.38;;;;;;;11.23;100.00;100053.53;5002205;28;20053;-66
2023/10/24 09:27:12;;;;;;;7.45;6.05;;;;;;;11.21;100.00;100050.03;5016795;28;20068;-66
2023/10/24 09:29:38;;;;;;;7.72;5.50;;;;;;;11.25;100.00;100038.88;5010652;28;20026;-66
2023/10/24 09:32:03;;;;;;;8.68;5.90;;;;;;;11.29;100.00;100043.25;5008591;28;20389;-67
2023/10/24 09:34:31;;;;;;;7.80;5.72;;;;;;;11.30;100.00;100038.94;5002225;28;20018;-66
2023/10/24 09:37:10;;;;;;;6.07;5.53;;;;;;;11.38;100.00;100037.34;5021284;28;20027;-67
2023/10/24 09:39:51;;;;;;;6.35;5.68;;;;;;;11.43;100.00;100050.38;5012933;28;20049;-67
2023/10/24 09:42:21;;;;;;;;;;;;;;;11.47;100.00;100056.50;5011353;28;20053;-67
2023/10/24 09:44:47;;;;;;;7.70;4.85;;;;;;;11.56;100.00;100043.66;5006809;28;19925;-67
2023/10/24 09:47:13;;;;;;;6.15;4.82;;;;;;;11.62;100.00;100040.31;4992775;28;20517;-66
2023/10/24 09:49:38;;;;;;;6.07;4.75;;;;;;;11.65;100.00;100038.63;4995911;28;20041;-66
2023/10/24 09:52:04;;;;;;;5.72;5.13;;;;;;;11.63;100.00;100031.66;5006171;28;20022;-65
2023/10/24 09:54:30;;;;;;;6.60;4.75;;;;;;;11.59;100.00;100040.22;5006936;28;20230;-66
2023/10/24 09:56:56;;;;;;;5.90;5.30;;;;;;;11.62;100.00;100032.50;5017554;28;20714;-66
2023/10/24 09:59:23;;;;;;;5.90;5.40;;;;;;;11.58;100.00;100029.00;4991807;28;20157;-66
2023/10/24 10:01:49;;;;;;;6.53;4.78;;;;;;;11.56;100.00;100029.81;5021703;28;20447;-66
2023/10/24 10:04:15;;;;;;;6.13;5.13;;;;;;;11.57;100.00;100036.72;5028787;28;20028;-65
2023/10/24 10:06:41;;;;;;;6.53;4.85;;;;;;;11.58;100.00;100033.31;5010176;28;20034;-66
2023/10/24 10:09:08;;;;;;;6.97;4.60;;;;;;;11.60;100.00;100034.22;5000661;28;20058;-66
2023/10/24 10:11:36;;;;;;;5.35;4.55;;;;;;;11.59;100.00;100041.13;5009986;28;20493;-66
2023/10/24 10:14:15;;;;;;;5.75;4.35;;;;;;;11.62;100.00;100040.31;5007282;28;20025;-66
2023/10/24 10:17:08;;;;;;;5.15;4.30;;;;;;;11.64;100.00;100052.44;5009585;28;20040;-66
2023/10/24 10:19:48;;;;;;;6.43;4.88;;;;;;;11.62;100.00;100045.50;5010491;28;20083;-67
2023/10/24 10:22:32;;;;;;;6.72;4.00;;;;;;;11.59;100.00;100054.09;5009859;28;20469;-66
2023/10/24 10:25:15;;;;;;;6.57;3.97;;;;;;;11.59;100.00;100056.69;5009867;28;20175;-67
2023/10/24 10:28:02;;;;;;;4.70;3.90;;;;;;;11.60;100.00;100049.78;5009853;28;20033;-66
2023/10/24 10:30:45;;;;;;;4.22;3.78;;;;;;;11.57;100.00;100057.50;5008800;28;20084;-66
2023/10/24 10:33:16;;;;;;;3.95;3.63;;;;;;;11.55;100.00;100046.25;5009839;28;20030;-65
2023/10/24 10:35:55;;;;;;;4.47;3.72;;;;;;;11.51;100.00;100042.72;5009088;28;20080;-66
2023/10/24 10:38:47;;;;;;;5.85;3.72;;;;;;;11.44;100.00;100038.28;5028902;28;20036;-66
2023/10/24 10:41:21;;;;;;;3.83;3.53;;;;;;;11.41;100.00;100026.13;5009098;28;20044;-66
2023/10/24 10:43:54;;;;;;;5.82;3.95;;;;;;;11.43;100.00;100024.44;5008527;28;20030;-67
2023/10/24 10:46:23;;;;;;;5.78;3.65;;;;;;;11.40;100.00;100032.19;4998120;28;20026;-66
2023/10/24 10:48:50;;;;;;;4.97;3.88;;;;;;;11.40;100.00;100032.19;5008564;28;20022;-66
2023/10/24 10:51:16;;;;;;;6.05;3.55;;;;;;;11.41;100.00;100032.19;5009217;28;20509;-67
2023/10/24 10:54:03;;;;;;;4.93;4.00;;;;;;;11.41;100.00;100033.91;5009303;28;20025;-65
2023/10/24 10:56:31;;;;;;;5.43;4.05;;;;;;;11.45;100.00;100030.53;5009407;28;20470;-67
2023/10/24 10:59:08;;;;;;;6.03;3.90;;;;;;;11.43;100.00;100031.34;5008507;28;20064;-66
2023/10/24 11:02:05;;;;;;;5.13;4.45;;;;;;;11.34;100.00;100026.88;5009773;28;20058;-65
2023/10/24 11:04:30;;;;;;;4.85;4.15;;;;;;;11.27;100.00;100034.59;4999646;28;20030;-66
2023/10/24 11:06:57;;;;;;;6.28;4.82;;;;;;;11.26;100.00;100032.81;5005438;28;20036;-66
2023/10/24 11:09:37;;;;;;;7.03;4.88;;;;;;;11.26;100.00;100034.56;5010725;28;20048;-66
2023/10/24 11:12:21;;;;;;;7.00;5.07;;;;;;;11.18;100.00;100024.06;5010162;28;20029;-66
2023/10/24 11:15:18;;;;;;;7.13;5.40;;;;;;;11.18;100.00;100031.81;5010105;28;20030;-67
2023/10/24 11:17:45;;;;;;;7.55;5.53;;;;;;;11.14;100.00;100027.44;5006759;28;20064;-66